Time;durP1;ratioP1;P1;durP2;ratioP2;P2;SDS_P1;SDS_P2;PMS_P1;PMS_P2;Temp;Humidity;BMP_temperature;BMP_pressure;BME280_temperature;BME280_humidity;BME280_pressure;Samples;Min_cycle;Max_cycle;Signal;HPM_P1;HPM_P2
2023/04/26 00:00:22;;;;;;;1.15;0.80;;;;;;;7.78;39.56;92122.22;5012405;28;20088;-77
2023/04/26 00:02:47;;;;;;;0.88;0.73;;;;;;;7.59;39.54;92115.13;5012521;28;20510;-77
2023/04/26 00:05:15;;;;;;;1.02;0.73;;;;;;;7.60;39.69;92126.31;5013436;28;20041;-77
2023/04/26 00:07:41;;;;;;;1.23;0.90;;;;;;;7.57;39.45;92119.81;5012895;28;20034;-77
2023/04/26 00:10:09;;;;;;;3.28;0.82;;;;;;;7.61;40.25;92120.84;5011753;28;20104;-77
2023/04/26 00:12:35;;;;;;;0.93;0.80;;;;;;;7.59;39.39;92125.53;5026539;28;20041;-77
2023/04/26 00:15:05;;;;;;;1.20;0.77;;;;;;;7.48;40.09;92118.88;5027503;28;20515;-77
2023/04/26 00:17:30;;;;;;;0.55;0.55;;;;;;;7.53;40.54;92118.06;5010279;28;20131;-77
2023/04/26 00:19:56;;;;;;;1.92;1.00;;;;;;;7.41;40.63;92115.81;5028376;28;20099;-77
2023/04/26 00:22:23;;;;;;;1.00;0.90;;;;;;;7.37;40.82;92118.19;5013229;28;20033;-77
2023/04/26 00:24:49;;;;;;;0.85;0.82;;;;;;;7.24;41.37;92114.38;5007333;28;20037;-77
2023/04/26 00:27:15;;;;;;;1.65;0.75;;;;;;;7.11;41.69;92122.84;5009962;28;20038;-77
2023/04/26 00:29:41;;;;;;;0.90;0.90;;;;;;;7.09;41.76;92119.72;5012942;28;20045;-78
2023/04/26 00:32:07;;;;;;;0.85;0.80;;;;;;;7.07;41.82;92124.44;5011559;28;20120;-78
2023/04/26 00:34:34;;;;;;;1.30;0.90;;;;;;;7.08;41.17;92123.38;5012534;28;20058;-77
2023/04/26 00:37:01;;;;;;;0.95;0.80;;;;;;;7.21;40.97;92117.56;5027008;28;20109;-78
2023/04/26 00:39:26;;;;;;;1.45;1.00;;;;;;;7.16;41.97;92128.00;5010367;28;20046;-78
2023/04/26 00:41:52;;;;;;;0.90;0.90;;;;;;;7.10;42.33;92123.91;5012608;28;20657;-78
2023/04/26 00:44:18;;;;;;;1.65;0.90;;;;;;;7.08;41.48;92128.59;4994034;28;20124;-78
2023/04/26 00:46:44;;;;;;;1.48;0.90;;;;;;;7.12;40.82;92121.81;5010394;28;20415;-77
2023/04/26 00:49:18;;;;;;;1.27;0.98;;;;;;;7.11;41.08;92127.28;5011687;28;20041;-77
2023/04/26 00:51:44;;;;;;;1.15;0.90;;;;;;;7.07;41.25;92124.44;4992320;28;20053;-77
2023/04/26 00:54:11;;;;;;;1.05;0.90;;;;;;;7.03;41.50;92133.84;4993979;28;20116;-78
2023/04/26 00:56:38;;;;;;;3.40;0.90;;;;;;;7.08;41.07;92131.19;5011005;28;20073;-77
2023/04/26 00:59:04;;;;;;;0.80;0.80;;;;;;;7.05;40.97;92136.97;5012409;28;20030;-77
2023/04/26 01:01:29;;;;;;;1.25;0.80;;;;;;;7.04;41.26;92130.19;4998395;28;20046;-77
2023/04/26 01:03:55;;;;;;;0.80;0.70;;;;;;;7.03;41.24;92139.81;4998527;28;20037;-77
2023/04/26 01:06:21;;;;;;;2.78;1.15;;;;;;;7.04;40.96;92138.75;5011054;28;20038;-77
2023/04/26 01:08:47;;;;;;;1.23;0.75;;;;;;;7.00;41.29;92142.19;5011301;28;20463;-77
2023/04/26 01:11:13;;;;;;;1.80;1.05;;;;;;;7.04;41.27;92138.00;5010607;28;20073;-78
2023/04/26 01:13:41;;;;;;;1.40;0.90;;;;;;;7.00;41.40;92140.38;5011153;28;20567;-77
2023/04/26 01:16:07;;;;;;;1.50;0.70;;;;;;;7.03;41.33;92144.25;5010923;28;20403;-78
2023/04/26 01:18:33;;;;;;;1.50;0.80;;;;;;;7.00;41.57;92144.78;5010618;28;20388;-77
2023/04/26 01:20:59;;;;;;;1.92;0.88;;;;;;;7.04;41.24;92138.75;4994753;28;20044;-77
2023/04/26 01:23:27;;;;;;;1.08;0.90;;;;;;;7.07;41.46;92145.28;5010585;28;20475;-78
2023/04/26 01:25:55;;;;;;;1.02;0.73;;;;;;;7.02;41.29;92145.28;5011953;28;20066;-77
2023/04/26 01:28:20;;;;;;;0.60;0.60;;;;;;;6.98;41.32;92150.28;5011829;28;20037;-78
2023/04/26 01:30:46;;;;;;;0.63;0.60;;;;;;;7.00;41.59;92150.00;4993857;28;20037;-77
2023/04/26 01:33:14;;;;;;;2.50;1.00;;;;;;;7.01;41.00;92154.16;4994316;28;20030;-76
2023/04/26 01:35:39;;;;;;;0.77;0.77;;;;;;;7.07;41.02;92151.25;5011350;28;20038;-76
2023/04/26 01:38:05;;;;;;;1.70;0.73;;;;;;;7.11;40.84;92151.47;5010145;28;20439;-76
2023/04/26 01:40:31;;;;;;;3.33;0.90;;;;;;;7.09;41.45;92159.56;5010356;28;20519;-76
2023/04/26 01:42:56;;;;;;;1.65;0.70;;;;;;;7.06;41.11;92159.31;5010537;28;20136;-77
2023/04/26 01:45:22;;;;;;;1.10;0.90;;;;;;;7.05;41.27;92157.78;5009971;28;20034;-76
2023/04/26 01:48:06;;;;;;;0.85;0.70;;;;;;;7.12;40.94;92157.47;5011519;28;20509;-76
2023/04/26 01:50:32;;;;;;;0.98;0.70;;;;;;;7.09;41.28;92169.19;5011943;28;20086;-77
2023/04/26 01:52:57;;;;;;;1.63;0.93;;;;;;;7.17;40.94;92160.03;4976783;28;20037;-76
2023/04/26 01:55:23;;;;;;;2.53;0.80;;;;;;;7.09;40.84;92158.75;4994941;28;20034;-77
2023/04/26 01:57:48;;;;;;;1.50;0.93;;;;;;;7.04;41.64;92162.19;5010622;28;20034;-77
2023/04/26 02:00:14;;;;;;;1.20;0.90;;;;;;;7.06;41.63;92156.72;5010078;28;20049;-77
2023/04/26 02:02:40;;;;;;;0.93;0.80;;;;;;;7.00;41.87;92165.59;5010130;28;20107;-77
2023/04/26 02:05:10;;;;;;;1.05;0.93;;;;;;;6.96;42.00;92159.38;5010138;28;20069;-76
2023/04/26 02:07:36;;;;;;;1.02;0.77;;;;;;;6.93;42.03;92157.34;5026793;28;20133;-78
2023/04/26 02:10:02;;;;;;;0.93;0.80;;;;;;;6.86;42.10;92160.22;5009556;28;20549;-76
2023/04/26 02:12:28;;;;;;;1.33;0.95;;;;;;;6.83;42.11;92161.56;5010379;28;20451;-76
2023/04/26 02:14:53;;;;;;;1.35;0.85;;;;;;;6.79;42.68;92160.53;5009170;28;20034;-76
2023/04/26 02:17:20;;;;;;;0.75;0.75;;;;;;;6.80;42.59;92162.09;5010354;28;20096;-76
2023/04/26 02:19:45;;;;;;;0.60;0.60;;;;;;;6.82;42.12;92162.63;5011528;28;20427;-76
2023/04/26 02:22:12;;;;;;;1.52;0.90;;;;;;;6.84;42.33;92159.72;5011642;28;20041;-76
2023/04/26 02:24:40;;;;;;;0.98;0.85;;;;;;;6.86;42.28;92163.59;5021193;28;20034;-76
2023/04/26 02:27:06;;;;;;;1.45;0.80;;;;;;;6.81;42.06;92158.44;5025698;28;20034;-76
2023/04/26 02:29:35;;;;;;;1.33;0.90;;;;;;;6.78;42.38;92161.59;5009612;28;20029;-76
2023/04/26 02:32:01;;;;;;;0.70;0.70;;;;;;;6.76;42.59;92166.28;5011182;28;20097;-76
2023/04/26 02:34:28;;;;;;;1.30;0.80;;;;;;;6.74;42.48;92162.41;5010137;28;20442;-76
2023/04/26 02:36:53;;;;;;;2.00;0.70;;;;;;;6.78;42.48;92166.81;5010854;28;20487;-76
2023/04/26 02:39:19;;;;;;;1.10;0.82;;;;;;;6.76;42.78;92166.28;5010009;28;20030;-76
2023/04/26 02:41:45;;;;;;;0.98;0.77;;;;;;;6.78;42.31;92166.81;5009828;28;20526;-76
2023/04/26 02:44:11;;;;;;;0.93;0.60;;;;;;;6.79;42.41;92160.53;5008451;28;20045;-76
2023/04/26 02:46:37;;;;;;;1.05;0.88;;;;;;;6.82;41.93;92162.63;5009097;28;20048;-76
2023/04/26 02:49:02;;;;;;;1.05;0.90;;;;;;;6.80;42.69;92159.50;5009768;28;20080;-75
2023/04/26 02:51:28;;;;;;;0.98;0.80;;;;;;;6.80;42.40;92167.31;5012015;28;20557;-78
2023/04/26 02:53:53;;;;;;;0.57;0.57;;;;;;;6.78;42.16;92159.00;4997519;28;20030;-77
2023/04/26 02:56:19;;;;;;;0.77;0.60;;;;;;;6.77;42.35;92167.06;5011802;28;20500;-77
2023/04/26 02:58:45;;;;;;;0.82;0.80;;;;;;;6.73;42.52;92164.22;5013919;28;20038;-77
2023/04/26 03:01:12;;;;;;;1.65;0.90;;;;;;;6.85;42.10;92159.47;5012738;28;20077;-77
2023/04/26 03:03:38;;;;;;;1.35;1.00;;;;;;;6.81;41.83;92158.44;5011255;28;20053;-77
2023/04/26 03:06:04;;;;;;;2.17;0.90;;;;;;;6.82;42.06;92156.63;5014544;28;20046;-77
2023/04/26 03:08:29;;;;;;;1.35;0.90;;;;;;;6.79;42.04;92160.53;5013218;28;20042;-77
2023/04/26 03:10:55;;;;;;;1.00;0.80;;;;;;;6.77;42.06;92160.03;5013341;28;20061;-76
2023/04/26 03:13:23;;;;;;;1.20;0.88;;;;;;;6.76;42.12;92161.09;5014277;28;20496;-76
2023/04/26 03:15:52;;;;;;;0.63;0.63;;;;;;;6.71;42.49;92162.94;5013670;28;20407;-77
2023/04/26 03:18:19;;;;;;;1.73;0.98;;;;;;;6.76;41.93;92163.69;5013907;28;20030;-77
2023/04/26 03:20:45;;;;;;;0.80;0.80;;;;;;;6.71;42.13;92157.72;5012957;28;20045;-76
2023/04/26 03:23:11;;;;;;;1.63;0.93;;;;;;;6.67;42.41;92160.88;5013584;28;20057;-77
2023/04/26 03:25:37;;;;;;;1.25;0.90;;;;;;;6.66;42.04;92168.94;5013481;28;20038;-77
2023/04/26 03:28:03;;;;;;;1.08;0.77;;;;;;;6.64;42.06;92163.22;4993319;28;20554;-77
2023/04/26 03:30:29;;;;;;;1.05;0.68;;;;;;;6.70;41.99;92164.00;4993682;28;20042;-77
2023/04/26 03:32:55;;;;;;;0.77;0.60;;;;;;;6.67;42.32;92160.88;5009783;28;20109;-76
2023/04/26 03:35:20;;;;;;;1.10;0.85;;;;;;;6.63;42.28;92166.88;5007572;28;20393;-76
2023/04/26 03:37:46;;;;;;;0.95;0.75;;;;;;;6.59;42.63;92165.88;5011555;28;20040;-76
2023/04/26 03:40:13;;;;;;;1.58;1.00;;;;;;;6.59;42.15;92163.25;5012921;28;20054;-76
2023/04/26 03:42:38;;;;;;;1.40;0.88;;;;;;;6.57;42.32;92162.75;5011931;28;20041;-77
2023/04/26 03:45:05;;;;;;;1.23;0.82;;;;;;;6.47;43.27;92161.00;5012913;28;20038;-76
2023/04/26 03:47:30;;;;;;;1.67;1.02;;;;;;;6.46;42.88;92175.03;5012634;28;20060;-76
2023/04/26 03:49:56;;;;;;;1.20;0.82;;;;;;;6.41;42.96;92167.25;5010885;28;20034;-77
2023/04/26 03:52:22;;;;;;;1.20;0.90;;;;;;;6.49;42.70;92165.94;5012170;28;20451;-77
2023/04/26 03:54:48;;;;;;;0.80;0.80;;;;;;;6.43;42.54;92165.94;5012068;28;20129;-76
2023/04/26 03:57:13;;;;;;;2.75;0.90;;;;;;;6.43;42.73;92171.13;4995563;28;20238;-77
2023/04/26 03:59:40;;;;;;;0.88;0.88;;;;;;;6.42;42.80;92177.41;5011792;28;20408;-77
2023/04/26 04:02:05;;;;;;;1.98;0.80;;;;;;;6.44;43.06;92175.31;5011124;28;20057;-77
2023/04/26 04:04:31;;;;;;;1.33;0.82;;;;;;;6.43;43.10;92173.75;5011963;28;20030;-77
2023/04/26 04:06:58;;;;;;;1.23;0.90;;;;;;;6.35;43.33;92168.31;4995735;28;20072;-76
2023/04/26 04:09:24;;;;;;;1.20;0.90;;;;;;;6.34;42.85;92175.34;5008273;28;20037;-76
2023/04/26 04:11:50;;;;;;;2.30;1.10;;;;;;;6.40;42.47;92174.28;5012460;28;20107;-76
2023/04/26 04:14:16;;;;;;;1.40;1.10;;;;;;;6.34;42.74;92177.94;5011813;28;20030;-76
2023/04/26 04:16:42;;;;;;;1.42;0.90;;;;;;;6.45;42.33;92171.66;4995906;28;20044;-77
2023/04/26 04:19:07;;;;;;;3.38;0.82;;;;;;;6.50;42.26;92170.09;5010588;28;20040;-77
2023/04/26 04:21:34;;;;;;;0.85;0.80;;;;;;;6.50;42.27;92175.28;5011207;28;20041;-77
2023/04/26 04:24:00;;;;;;;0.80;0.80;;;;;;;6.50;42.16;92180.47;5011484;28;20120;-79
2023/04/26 04:26:26;;;;;;;1.58;1.00;;;;;;;6.60;42.01;92185.66;5008587;28;20076;-78
2023/04/26 04:28:54;;;;;;;2.75;1.00;;;;;;;6.53;42.66;92192.94;5010728;28;20455;-78
2023/04/26 04:31:20;;;;;;;2.55;0.90;;;;;;;6.54;42.88;92186.72;5010878;28;20034;-77
2023/04/26 04:33:46;;;;;;;3.92;1.00;;;;;;;6.47;43.85;92189.59;4996236;28;20038;-77
2023/04/26 04:36:12;;;;;;;2.45;1.00;;;;;;;6.52;43.74;92186.97;5008319;28;20034;-77
2023/04/26 04:38:37;;;;;;;2.47;0.85;;;;;;;6.47;43.25;92179.97;5011231;28;20092;-78
2023/04/26 04:41:07;;;;;;;2.17;1.10;;;;;;;6.51;43.21;92184.63;4993334;28;20081;-77
2023/04/26 04:43:33;;;;;;;1.95;0.90;;;;;;;6.46;43.09;92186.22;4976263;28;20045;-77
2023/04/26 04:45:59;;;;;;;1.00;0.90;;;;;;;6.47;43.12;92192.19;5002790;28;20022;-77
2023/04/26 04:48:24;;;;;;;0.73;0.70;;;;;;;6.47;43.91;92200.00;5010929;28;20518;-77
2023/04/26 04:50:50;;;;;;;1.88;0.77;;;;;;;6.47;43.73;92192.97;5009879;28;20084;-77
2023/04/26 04:53:16;;;;;;;1.27;1.00;;;;;;;6.47;43.51;92195.56;5010282;28;20046;-77
2023/04/26 04:55:41;;;;;;;1.52;1.00;;;;;;;6.42;44.20;92193.00;5009167;28;20427;-80
2023/04/26 04:58:08;;;;;;;1.75;1.08;;;;;;;6.47;43.80;92202.59;4995786;28;20038;-80
2023/04/26 05:00:36;;;;;;;3.83;0.93;;;;;;;6.60;42.44;92198.66;4994214;28;20032;-81
2023/04/26 05:03:17;;;;;;;2.58;0.95;;;;;;;6.69;42.28;92199.63;5012366;28;20140;-79
2023/04/26 05:05:44;;;;;;;0.85;0.80;;;;;;;6.78;41.76;92200.63;5008585;28;20451;-79
2023/04/26 05:08:09;;;;;;;1.55;1.00;;;;;;;6.86;42.15;92210.44;5004607;28;20025;-81
2023/04/26 05:10:35;;;;;;;2.92;1.00;;;;;;;7.02;41.91;92210.34;5012397;28;20041;-80
2023/04/26 05:13:04;;;;;;;1.05;0.90;;;;;;;7.04;41.75;92213.47;5014268;28;20034;-78
2023/04/26 05:15:30;;;;;;;1.98;1.02;;;;;;;7.10;41.52;92215.00;5018397;28;20037;-79
2023/04/26 05:17:58;;;;;;;2.83;0.93;;;;;;;7.26;40.87;92210.47;5019728;28;20041;-79
2023/04/26 05:20:24;;;;;;;2.15;1.00;;;;;;;7.32;40.44;92219.00;5015884;28;20049;-79
2023/04/26 05:22:50;;;;;;;1.42;0.77;;;;;;;7.39;40.78;92214.28;5016046;28;20034;-82
2023/04/26 05:25:16;;;;;;;1.08;0.90;;;;;;;7.60;40.80;92218.25;5015243;28;20033;-81
2023/04/26 05:27:44;;;;;;;0.88;0.80;;;;;;;7.63;40.32;92222.94;5011138;28;20045;-80
2023/04/26 05:30:29;;;;;;;1.20;0.80;;;;;;;7.78;39.54;92218.63;4997309;28;20044;-79
2023/04/26 05:33:18;;;;;;;1.38;0.95;;;;;;;8.13;38.11;92220.88;4989439;28;20096;-79
2023/04/26 05:35:48;;;;;;;2.83;1.20;;;;;;;8.14;38.80;92225.03;5014020;28;20037;-79
2023/04/26 05:38:14;;;;;;;1.98;1.00;;;;;;;8.29;38.60;92225.94;5010095;28;20121;-78
2023/04/26 05:40:40;;;;;;;1.60;0.82;;;;;;;8.34;39.07;92233.72;5019290;28;20140;-79
2023/04/26 05:43:06;;;;;;;2.03;0.98;;;;;;;8.45;38.07;92218.75;5011729;28;20034;-79
2023/04/26 05:45:33;;;;;;;2.45;0.90;;;;;;;8.52;38.85;92227.78;4998064;28;20041;-80
2023/04/26 05:48:00;;;;;;;1.50;1.08;;;;;;;8.64;38.73;92234.44;5014685;28;20341;-80
2023/04/26 05:50:25;;;;;;;1.55;0.93;;;;;;;8.71;37.09;92242.69;4993951;28;20081;-80
2023/04/26 05:52:51;;;;;;;2.15;1.00;;;;;;;8.82;38.35;92238.91;5010219;28;20538;-80
2023/04/26 05:55:20;;;;;;;1.25;0.90;;;;;;;9.04;37.80;92234.97;5013910;28;20480;-79
2023/04/26 05:57:46;;;;;;;2.35;1.10;;;;;;;9.15;37.31;92246.84;5014178;28;20034;-78
2023/04/26 06:00:14;;;;;;;2.72;0.93;;;;;;;9.28;37.43;92248.75;5013060;28;20396;-79
2023/04/26 06:02:41;;;;;;;2.17;0.90;;;;;;;9.38;36.09;92240.72;5014127;28;20152;-81
2023/04/26 06:05:12;;;;;;;1.58;0.90;;;;;;;9.56;35.64;92243.63;5015453;28;20034;-82
2023/04/26 06:07:38;;;;;;;3.40;1.10;;;;;;;9.89;36.97;92251.47;4994658;28;20014;-80
2023/04/26 06:10:04;;;;;;;4.57;1.10;;;;;;;10.17;34.46;92245.22;5007141;28;20080;-78
2023/04/26 06:12:30;;;;;;;2.47;1.00;;;;;;;11.17;33.82;92246.47;4994414;28;20515;-78
2023/04/26 06:14:57;;;;;;;4.10;1.20;;;;;;;12.41;31.47;92232.78;5011638;28;20431;-79
2023/04/26 06:17:25;;;;;;;1.45;0.90;;;;;;;13.68;30.84;92250.50;5012127;28;20076;-79
2023/04/26 06:19:52;;;;;;;1.38;1.10;;;;;;;14.77;29.88;92247.47;4994602;28;20050;-79
2023/04/26 06:22:18;;;;;;;4.18;1.50;;;;;;;15.77;27.67;92239.88;5008796;28;20053;-79
2023/04/26 06:24:43;;;;;;;1.17;1.08;;;;;;;16.36;27.22;92244.09;5011916;28;20042;-78
2023/04/26 06:27:09;;;;;;;2.35;1.20;;;;;;;17.27;24.58;92248.50;5008842;28;20042;-79
2023/04/26 06:29:36;;;;;;;0.80;0.60;;;;;;;17.18;27.64;92239.88;4994105;28;20045;-79
2023/04/26 06:32:02;;;;;;;1.30;1.00;;;;;;;17.17;27.37;92241.75;5003833;28;20042;-80
2023/04/26 06:34:28;;;;;;;3.55;1.50;;;;;;;17.25;28.61;92240.13;5006564;28;20034;-79
2023/04/26 06:36:54;;;;;;;4.30;1.40;;;;;;;17.37;27.07;92226.09;5009116;28;20042;-77
2023/04/26 06:39:21;;;;;;;2.67;0.93;;;;;;;17.54;27.26;92240.91;5009728;28;20030;-78
2023/04/26 06:41:47;;;;;;;1.35;0.90;;;;;;;18.10;27.21;92247.06;5008860;28;20566;-78
2023/04/26 06:44:23;;;;;;;3.00;1.30;;;;;;;17.97;27.02;92240.28;4991740;28;20035;-77
2023/04/26 06:46:53;;;;;;;2.70;1.45;;;;;;;17.75;28.35;92236.25;4997021;28;20042;-78
2023/04/26 06:49:19;;;;;;;2.47;1.05;;;;;;;16.81;27.40;92247.84;5009616;28;20062;-78
2023/04/26 06:51:44;;;;;;;4.95;1.27;;;;;;;16.29;29.15;92262.38;5009671;28;20042;-78
2023/04/26 06:54:11;;;;;;;2.17;0.98;;;;;;;15.10;30.33;92241.56;4986766;28;20423;-77
2023/04/26 06:56:37;;;;;;;1.63;1.10;;;;;;;13.91;29.40;92254.50;5007466;28;20026;-76
2023/04/26 06:59:04;;;;;;;2.00;0.85;;;;;;;13.31;33.43;92257.94;5013573;28;20036;-79
2023/04/26 07:01:34;;;;;;;2.25;1.13;;;;;;;13.07;36.11;92261.72;5018758;28;20033;-77
2023/04/26 07:04:06;;;;;;;2.33;1.40;;;;;;;12.69;34.67;92262.22;5008694;28;20554;-77
2023/04/26 07:06:32;;;;;;;4.05;1.00;;;;;;;12.73;34.93;92270.28;5006415;28;20129;-78
2023/04/26 07:08:59;;;;;;;1.55;0.98;;;;;;;12.34;36.01;92265.78;4993472;28;20448;-77
2023/04/26 07:11:25;;;;;;;2.42;1.10;;;;;;;12.21;37.06;92270.06;5009854;28;20042;-78
2023/04/26 07:13:52;;;;;;;2.30;1.05;;;;;;;11.87;36.17;92272.16;5024913;28;20404;-77
2023/04/26 07:16:17;;;;;;;2.60;1.00;;;;;;;12.08;37.45;92269.06;5009451;28;20127;-77
2023/04/26 07:18:43;;;;;;;1.55;1.13;;;;;;;11.74;36.62;92272.97;5010767;28;20045;-77
2023/04/26 07:21:09;;;;;;;1.70;0.90;;;;;;;11.70;36.70;92272.00;5009363;28;20148;-76
2023/04/26 07:23:35;;;;;;;2.08;1.20;;;;;;;11.80;36.79;92271.78;5010482;28;20041;-76
2023/04/26 07:26:03;;;;;;;2.17;1.13;;;;;;;11.93;35.40;92269.41;5026062;28;20044;-77
2023/04/26 07:28:29;;;;;;;1.60;1.20;;;;;;;12.03;37.26;92269.94;5010762;28;20084;-77
2023/04/26 07:30:55;;;;;;;2.75;1.33;;;;;;;12.05;36.09;92267.03;5009031;28;20057;-78
2023/04/26 07:33:20;;;;;;;2.47;1.30;;;;;;;12.16;35.30;92268.34;5022370;28;20030;-78
2023/04/26 07:35:56;;;;;;;2.55;1.13;;;;;;;12.22;36.83;92261.88;5025585;28;20331;-78
2023/04/26 07:38:22;;;;;;;1.90;1.02;;;;;;;12.42;35.46;92270.31;5014162;28;20443;-78
2023/04/26 07:40:48;;;;;;;2.15;1.30;;;;;;;12.32;32.68;92268.72;5013958;28;20400;-77
2023/04/26 07:43:14;;;;;;;0.98;0.88;;;;;;;12.17;34.14;92264.63;5014319;28;20037;-77
2023/04/26 07:45:40;;;;;;;1.63;1.00;;;;;;;12.14;33.76;92270.47;5014186;28;20038;-77
2023/04/26 07:48:06;;;;;;;2.20;1.15;;;;;;;12.33;34.38;92277.38;5011698;28;20589;-77
2023/04/26 07:50:32;;;;;;;2.30;0.80;;;;;;;12.53;33.29;92266.34;5011355;28;20022;-77
2023/04/26 07:52:58;;;;;;;2.25;1.00;;;;;;;12.37;36.29;92273.06;5012214;28;20488;-77
2023/04/26 07:55:24;;;;;;;5.43;1.20;;;;;;;12.65;36.39;92266.56;5013782;28;20026;-77
2023/04/26 07:57:49;;;;;;;3.53;1.02;;;;;;;12.35;34.31;92268.13;5013750;28;20037;-77
2023/04/26 08:00:16;;;;;;;1.63;1.05;;;;;;;12.45;34.11;92269.69;5012290;28;20495;-77
2023/04/26 08:02:41;;;;;;;3.95;1.40;;;;;;;12.37;33.47;92267.81;5013567;28;20119;-77
2023/04/26 08:05:07;;;;;;;3.03;1.00;;;;;;;12.61;33.38;92278.75;5011690;28;20489;-77
2023/04/26 08:07:33;;;;;;;0.93;0.85;;;;;;;12.69;31.12;92272.72;5009482;28;20043;-77
2023/04/26 08:09:59;;;;;;;2.20;1.30;;;;;;;12.50;30.43;92278.22;4994367;28;20393;-77
2023/04/26 08:12:25;;;;;;;2.90;1.42;;;;;;;12.76;32.30;92276.78;4976773;28;20042;-77
2023/04/26 08:14:50;;;;;;;1.38;0.90;;;;;;;12.88;32.14;92276.97;5009522;28;20023;-77
2023/04/26 08:17:16;;;;;;;1.27;0.82;;;;;;;12.81;33.17;92276.63;5008733;28;20393;-77
2023/04/26 08:19:41;;;;;;;2.85;1.30;;;;;;;12.80;33.15;92280.34;4992289;28;20085;-77
2023/04/26 08:22:07;;;;;;;0.98;0.80;;;;;;;12.93;33.03;92278.69;4976636;28;20502;-78
2023/04/26 08:24:33;;;;;;;1.27;0.88;;;;;;;12.65;30.88;92284.94;4995166;28;20039;-77
2023/04/26 08:26:58;;;;;;;1.67;0.90;;;;;;;13.00;31.28;92274.53;4976153;28;20109;-77
2023/04/26 08:29:26;;;;;;;2.95;1.23;;;;;;;13.03;33.23;92284.41;4993877;28;20042;-77
2023/04/26 08:31:52;;;;;;;2.63;1.20;;;;;;;12.95;31.08;92290.44;4981011;28;20045;-77
2023/04/26 08:34:17;;;;;;;1.65;0.98;;;;;;;13.36;30.92;92286.69;4993458;28;20030;-77
2023/04/26 08:36:44;;;;;;;1.60;1.10;;;;;;;13.17;30.60;92284.31;5008652;28;20066;-77
2023/04/26 08:39:13;;;;;;;1.35;1.02;;;;;;;13.10;31.48;92294.47;4995434;28;20081;-77
2023/04/26 08:41:44;;;;;;;2.03;1.15;;;;;;;13.32;32.11;92285.75;5011574;28;20061;-77
2023/04/26 08:44:10;;;;;;;2.13;1.00;;;;;;;13.37;29.98;92285.59;5011579;28;20479;-77
2023/04/26 08:46:46;;;;;;;3.50;1.20;;;;;;;13.36;31.15;92281.44;5012597;28;20434;-78
2023/04/26 08:49:29;;;;;;;2.80;0.93;;;;;;;13.24;26.05;92299.59;5011564;28;20034;-77
2023/04/26 08:51:56;;;;;;;2.55;1.08;;;;;;;13.32;29.14;92283.13;5011551;28;20128;-77
2023/04/26 08:54:24;;;;;;;1.10;0.90;;;;;;;13.37;26.64;92292.72;5027984;28;20096;-77
2023/04/26 08:56:51;;;;;;;2.30;1.30;;;;;;;13.34;25.71;92288.84;5005666;28;20081;-77
2023/04/26 08:59:18;;;;;;;2.90;1.10;;;;;;;13.37;28.66;92282.19;5015094;28;20028;-77
2023/04/26 09:01:44;;;;;;;5.75;1.48;;;;;;;13.37;30.92;92284.81;5011270;28;20101;-77
2023/04/26 09:04:11;;;;;;;2.88;1.55;;;;;;;13.48;30.68;92286.06;5011287;28;20026;-77
2023/04/26 09:06:37;;;;;;;2.25;1.05;;;;;;;13.58;29.00;92291.03;4994975;28;20044;-77
2023/04/26 09:09:06;;;;;;;2.53;1.05;;;;;;;13.46;27.60;92296.88;5012418;28;20037;-77
2023/04/26 09:12:00;;;;;;;2.47;1.30;;;;;;;13.70;28.57;92290.41;5011176;28;20219;-78
2023/04/26 09:14:26;;;;;;;6.35;1.13;;;;;;;13.62;29.43;92291.97;5012081;28;20034;-77
2023/04/26 09:16:53;;;;;;;3.05;1.30;;;;;;;13.77;28.71;92293.34;5012441;28;20125;-78
2023/04/26 09:19:43;;;;;;;1.88;1.20;;;;;;;13.80;27.89;92289.31;5012222;28;20488;-77
2023/04/26 09:22:09;;;;;;;2.88;1.30;;;;;;;14.02;29.00;92298.91;5010763;28;20077;-77
2023/04/26 09:24:49;;;;;;;2.05;1.20;;;;;;;14.05;29.39;92298.28;5012133;28;20480;-77
2023/04/26 09:27:15;;;;;;;1.88;1.15;;;;;;;14.25;28.98;92300.28;5011979;28;20034;-77
2023/04/26 09:30:08;;;;;;;1.52;1.00;;;;;;;14.13;28.47;92289.63;5012059;28;20018;-77
2023/04/26 09:33:02;;;;;;;1.80;1.10;;;;;;;14.15;30.66;92301.38;5001535;28;20053;-77
2023/04/26 09:35:42;;;;;;;5.15;1.30;;;;;;;14.13;27.19;92287.75;5011948;28;20392;-77
2023/04/26 09:38:11;;;;;;;1.80;1.05;;;;;;;14.10;27.19;92292.88;5011919;28;20034;-77
2023/04/26 09:40:39;;;;;;;1.92;0.90;;;;;;;14.24;29.93;92290.84;5011867;28;20057;-77
2023/04/26 09:43:06;;;;;;;3.15;1.42;;;;;;;14.58;29.78;92289.22;5008528;28;20116;-77
2023/04/26 09:45:45;;;;;;;2.28;1.15;;;;;;;14.82;30.11;92287.91;5009115;28;20025;-77
2023/04/26 09:48:33;;;;;;;2.30;1.17;;;;;;;14.66;28.77;92283.16;5009433;28;20095;-78
2023/04/26 09:51:01;;;;;;;2.30;0.95;;;;;;;14.60;26.80;92287.06;5010591;28;20034;-77
2023/04/26 09:53:28;;;;;;;1.77;0.95;;;;;;;14.85;28.34;92282.00;5011594;28;20037;-77
2023/04/26 09:55:55;;;;;;;2.42;1.10;;;;;;;14.60;28.84;92279.16;5011729;28;20033;-77
2023/04/26 09:58:22;;;;;;;2.10;1.15;;;;;;;14.57;28.45;92279.78;5010488;28;20092;-77
2023/04/26 10:00:50;;;;;;;3.22;1.30;;;;;;;14.65;30.23;92276.34;5026385;28;20061;-77
2023/04/26 10:03:17;;;;;;;1.67;0.85;;;;;;;14.63;27.76;92278.50;5011723;28;20033;-78
2023/04/26 10:05:43;;;;;;;1.73;1.02;;;;;;;14.88;28.28;92281.34;5008596;28;20542;-77
2023/04/26 10:08:09;;;;;;;2.33;1.10;;;;;;;14.69;27.96;92277.25;5026885;28;20435;-77
2023/04/26 10:10:36;;;;;;;1.75;1.10;;;;;;;14.83;26.75;92273.63;5011452;28;20042;-77
2023/04/26 10:13:02;;;;;;;3.95;1.17;;;;;;;14.91;28.10;92272.84;5011519;28;20033;-77
2023/04/26 10:15:28;;;;;;;3.13;1.30;;;;;;;14.92;27.55;92272.50;5011446;28;20076;-77
2023/04/26 10:17:53;;;;;;;1.95;1.10;;;;;;;14.98;27.36;92273.09;5011392;28;20081;-76
2023/04/26 10:20:20;;;;;;;1.25;0.98;;;;;;;14.90;25.51;92266.00;5026621;28;20057;-76
2023/04/26 10:22:52;;;;;;;1.25;1.00;;;;;;;15.02;28.69;92258.22;4996935;28;20022;-77
2023/04/26 10:25:18;;;;;;;1.90;1.10;;;;;;;15.12;27.88;92263.09;4991833;28;20038;-77
2023/04/26 10:27:43;;;;;;;3.03;1.20;;;;;;;15.62;27.87;92253.59;4992120;28;20041;-77
2023/04/26 10:30:15;;;;;;;4.20;1.00;;;;;;;15.40;26.80;92263.41;4993792;28;20381;-77
2023/04/26 10:32:56;;;;;;;1.75;1.00;;;;;;;15.52;26.96;92254.00;5011206;28;20492;-77
2023/04/26 10:35:29;;;;;;;1.58;1.05;;;;;;;15.63;26.31;92255.16;5011599;28;20438;-77
2023/04/26 10:37:58;;;;;;;1.60;0.98;;;;;;;15.56;25.42;92260.19;5009759;28;20046;-77
2023/04/26 10:40:38;;;;;;;1.08;0.80;;;;;;;15.43;26.88;92251.44;4990077;28;20412;-77
2023/04/26 10:43:09;;;;;;;2.47;1.05;;;;;;;15.24;24.92;92248.44;4990204;28;20072;-77
2023/04/26 10:45:36;;;;;;;2.47;0.90;;;;;;;15.49;25.11;92258.06;4991499;28;20047;-76
2023/04/26 10:48:30;;;;;;;1.10;0.88;;;;;;;15.49;27.61;92255.44;4989812;28;20038;-77
2023/04/26 10:51:03;;;;;;;1.50;0.82;;;;;;;15.71;26.73;92243.03;4990181;28;20046;-76
2023/04/26 10:53:44;;;;;;;1.33;0.80;;;;;;;15.51;25.06;92255.09;4991701;28;20401;-76
2023/04/26 10:56:11;;;;;;;1.75;0.90;;;;;;;15.55;26.30;92234.91;5000697;28;20095;-76
2023/04/26 10:58:40;;;;;;;2.67;1.30;;;;;;;15.82;25.96;92236.25;5004502;28;20030;-76
2023/04/26 11:01:19;;;;;;;1.88;0.85;;;;;;;15.50;22.85;92241.13;5010226;28;20041;-77
2023/04/26 11:03:57;;;;;;;1.23;1.02;;;;;;;15.12;23.08;92231.47;5006532;28;20132;-77
2023/04/26 11:06:25;;;;;;;2.55;1.27;;;;;;;15.35;23.95;92241.72;5008502;28;20050;-76
2023/04/26 11:08:52;;;;;;;1.77;1.20;;;;;;;15.40;24.12;92236.22;5007291;28;20037;-77
2023/04/26 11:11:18;;;;;;;1.42;0.90;;;;;;;15.26;24.96;92241.00;5011551;28;20034;-76
2023/04/26 11:13:45;;;;;;;3.78;1.45;;;;;;;15.41;23.73;92237.78;5010945;28;20022;-76
2023/04/26 11:16:13;;;;;;;1.52;1.20;;;;;;;15.24;24.07;92227.34;5015821;28;20046;-78
2023/04/26 11:18:45;;;;;;;3.35;1.10;;;;;;;15.46;25.00;92223.63;5013159;28;20034;-77
2023/04/26 11:21:14;;;;;;;3.03;0.90;;;;;;;15.56;24.73;92234.59;4994971;28;20046;-77
2023/04/26 11:23:39;;;;;;;2.70;1.23;;;;;;;15.44;26.29;92231.88;5014679;28;20101;-77
2023/04/26 11:26:07;;;;;;;1.35;0.90;;;;;;;15.41;25.40;92220.09;5015211;28;20121;-77
2023/04/26 11:28:35;;;;;;;1.15;0.90;;;;;;;15.47;24.96;92225.97;5015510;28;20238;-77
2023/04/26 11:31:02;;;;;;;8.48;1.60;;;;;;;15.63;24.20;92223.50;5009865;28;20049;-78
2023/04/26 11:33:28;;;;;;;1.77;1.00;;;;;;;15.56;24.90;92218.00;5010619;28;20112;-77
2023/04/26 11:35:56;;;;;;;2.80;1.13;;;;;;;15.71;23.30;92219.28;5014250;28;20056;-77
2023/04/26 11:38:23;;;;;;;1.38;0.80;;;;;;;16.10;26.59;92219.84;5014655;28;20052;-77
2023/04/26 11:41:02;;;;;;;2.28;1.10;;;;;;;15.76;25.46;92225.13;5010795;28;20049;-77